createdAt,value
2023-02-28T00:00:23.838Z,2.47
2023-02-28T00:02:52.376Z,2.47
2023-02-28T00:05:22.841Z,2.47
2023-02-28T00:07:51.613Z,2.50
2023-02-28T00:10:24.096Z,2.55
2023-02-28T00:12:53.380Z,2.58
2023-02-28T00:15:23.926Z,2.61
2023-02-28T00:17:52.548Z,2.61
2023-02-28T00:20:22.177Z,2.59
2023-02-28T00:22:51.903Z,2.52
2023-02-28T00:25:23.395Z,2.46
2023-02-28T00:27:52.043Z,2.45
2023-02-28T00:30:24.285Z,2.50
2023-02-28T00:32:53.852Z,2.57
2023-02-28T00:35:23.028Z,2.63
2023-02-28T00:37:51.496Z,2.67
2023-02-28T00:40:20.394Z,2.70
2023-02-28T00:42:48.810Z,2.72
2023-02-28T00:45:17.343Z,2.71
2023-02-28T00:47:47.663Z,2.70
2023-02-28T00:50:20.352Z,2.70
2023-02-28T00:52:51.625Z,2.66
2023-02-28T00:55:20.372Z,2.64
2023-02-28T00:57:50.211Z,2.63
2023-02-28T01:00:19.980Z,2.61
2023-02-28T01:02:48.406Z,2.57
2023-02-28T01:05:17.033Z,2.53
2023-02-28T01:07:47.547Z,2.52
2023-02-28T01:10:15.967Z,2.52
2023-02-28T01:12:44.737Z,2.51
2023-02-28T01:15:13.902Z,2.48
2023-02-28T01:17:42.408Z,2.46
2023-02-28T01:20:11.581Z,2.46
2023-02-28T01:22:40.276Z,2.45
2023-02-28T01:25:09.692Z,2.43
2023-02-28T01:27:38.261Z,2.40
2023-02-28T01:30:10.850Z,2.38
2023-02-28T01:32:40.083Z,2.36
2023-02-28T01:35:08.680Z,2.35
2023-02-28T01:37:38.456Z,2.32
2023-02-28T01:40:07.629Z,2.30
2023-02-28T01:42:36.351Z,2.28
2023-02-28T01:45:08.022Z,2.23
2023-02-28T01:47:39.847Z,2.18
2023-02-28T01:50:13.920Z,2.11
2023-02-28T01:52:42.786Z,2.09
2023-02-28T01:55:12.901Z,2.11
2023-02-28T01:57:48.050Z,2.12
2023-02-28T02:00:18.968Z,2.09
2023-02-28T02:02:53.128Z,2.08
2023-02-28T02:05:26.986Z,2.06
2023-02-28T02:07:56.485Z,2.05
2023-02-28T02:10:36.666Z,2.03
2023-02-28T02:13:26.845Z,2.00
2023-02-28T02:15:55.322Z,2.03
2023-02-28T02:18:48.003Z,2.05
2023-02-28T02:21:55.916Z,2.10
2023-02-28T02:25:03.780Z,2.14
2023-02-28T02:27:42.254Z,2.12
2023-02-28T02:30:29.359Z,2.11
2023-02-28T02:33:39.389Z,2.08
2023-02-28T02:36:28.775Z,2.04
2023-02-28T02:39:17.726Z,2.03
2023-02-28T02:41:54.737Z,2.01
2023-02-28T02:44:25.667Z,1.99
2023-02-28T02:46:56.836Z,2.00
2023-02-28T02:49:27.594Z,2.03
2023-02-28T02:51:57.536Z,2.05
2023-02-28T02:54:30.541Z,2.08
2023-02-28T02:57:01.897Z,2.11
2023-02-28T02:59:30.437Z,2.12
2023-02-28T03:02:03.084Z,2.09
2023-02-28T03:04:37.614Z,2.07
2023-02-28T03:07:06.263Z,2.03
2023-02-28T03:09:39.759Z,1.99
2023-02-28T03:12:12.829Z,1.93
2023-02-28T03:15:05.307Z,1.87
2023-02-28T03:17:46.952Z,1.84
2023-02-28T03:20:17.268Z,1.80
2023-02-28T03:23:07.457Z,1.75
2023-02-28T03:25:44.909Z,1.68
2023-02-28T03:28:19.491Z,1.62
2023-02-28T03:30:55.891Z,1.55
2023-02-28T03:33:42.103Z,1.50
2023-02-28T03:36:13.694Z,1.46
2023-02-28T03:38:54.620Z,1.43
2023-02-28T03:41:32.864Z,1.40
2023-02-28T03:44:07.168Z,1.35
2023-02-28T03:46:39.709Z,1.29
2023-02-28T03:49:18.136Z,1.24
2023-02-28T03:51:46.567Z,1.20
2023-02-28T03:54:36.809Z,1.16
2023-02-28T03:57:12.132Z,1.14
2023-02-28T03:59:46.476Z,1.13
2023-02-28T04:02:15.171Z,1.12
2023-02-28T04:04:49.811Z,1.12
2023-02-28T04:07:18.509Z,1.13
2023-02-28T04:09:46.852Z,1.13
2023-02-28T04:12:18.674Z,1.14
2023-02-28T04:14:47.493Z,1.16
2023-02-28T04:17:20.212Z,1.18
2023-02-28T04:19:49.021Z,1.17
2023-02-28T04:22:19.017Z,1.10
2023-02-28T04:24:47.653Z,1.01
2023-02-28T04:27:17.010Z,0.92
2023-02-28T04:29:45.746Z,0.88
2023-02-28T04:32:14.568Z,0.88
2023-02-28T04:34:44.006Z,0.88
2023-02-28T04:37:14.397Z,0.88
2023-02-28T04:39:44.113Z,0.87
2023-02-28T04:42:12.771Z,0.86
2023-02-28T04:44:42.448Z,0.86
2023-02-28T04:47:11.913Z,0.87
2023-02-28T04:49:40.576Z,0.94
2023-02-28T04:52:09.051Z,0.99
2023-02-28T04:54:42.572Z,1.01
2023-02-28T04:57:11.613Z,0.98
2023-02-28T04:59:39.956Z,0.96
2023-02-28T05:02:08.734Z,0.92
2023-02-28T05:04:37.343Z,0.92
2023-02-28T05:07:05.926Z,0.93
2023-02-28T05:09:34.635Z,0.93
2023-02-28T05:12:07.631Z,0.92
2023-02-28T05:14:38.251Z,0.92
2023-02-28T05:17:06.780Z,0.92
2023-02-28T05:19:36.668Z,0.93
2023-02-28T05:22:05.051Z,0.96
2023-02-28T05:24:41.164Z,0.98
2023-02-28T05:27:09.713Z,0.97
2023-02-28T05:29:42.864Z,0.97
2023-02-28T05:32:12.624Z,0.98
2023-02-28T05:34:41.157Z,0.98
2023-02-28T05:37:13.163Z,0.97
2023-02-28T05:39:42.493Z,1.00
2023-02-28T05:42:10.941Z,1.03
2023-02-28T05:44:41.711Z,1.06
2023-02-28T05:47:11.743Z,1.08
2023-02-28T05:49:41.318Z,1.09
2023-02-28T05:52:09.715Z,1.12
2023-02-28T05:54:38.074Z,1.12
2023-02-28T05:57:15.485Z,1.14
2023-02-28T05:59:51.706Z,1.20
2023-02-28T06:02:20.200Z,1.23
2023-02-28T06:04:49.042Z,1.26
2023-02-28T06:07:18.810Z,1.29
2023-02-28T06:09:47.624Z,1.33
2023-02-28T06:12:16.479Z,1.36
2023-02-28T06:14:44.700Z,1.38
2023-02-28T06:17:13.062Z,1.39
2023-02-28T06:19:43.117Z,1.39
2023-02-28T06:22:11.364Z,1.36
2023-02-28T06:24:39.664Z,1.31
2023-02-28T06:27:08.169Z,1.29
2023-02-28T06:29:36.678Z,1.31
2023-02-28T06:32:05.267Z,1.31
2023-02-28T06:34:36.230Z,1.29
2023-02-28T06:37:04.494Z,1.29
2023-02-28T06:39:39.204Z,1.28
2023-02-28T06:42:07.410Z,1.27
2023-02-28T06:44:39.329Z,1.29
2023-02-28T06:47:07.615Z,1.34
2023-02-28T06:49:38.605Z,1.41
2023-02-28T06:52:10.975Z,1.51
2023-02-28T06:54:39.171Z,1.61
2023-02-28T06:57:07.374Z,1.68
2023-02-28T06:59:36.541Z,1.72
2023-02-28T07:02:07.671Z,1.78
2023-02-28T07:04:36.385Z,1.82
2023-02-28T07:07:05.071Z,1.85
2023-02-28T07:09:33.382Z,1.83
2023-02-28T07:12:01.710Z,1.79
2023-02-28T07:14:30.861Z,1.77
2023-02-28T07:16:59.248Z,1.75
2023-02-28T07:19:29.401Z,1.73
2023-02-28T07:21:57.730Z,1.75
2023-02-28T07:24:29.440Z,1.80
2023-02-28T07:26:57.927Z,1.87
2023-02-28T07:29:26.726Z,1.98
2023-02-28T07:31:56.098Z,2.10
2023-02-28T07:34:25.109Z,2.19
2023-02-28T07:36:56.258Z,2.28
2023-02-28T07:39:24.627Z,2.37
2023-02-28T07:41:52.954Z,2.43
2023-02-28T07:44:25.290Z,2.48
2023-02-28T07:46:54.125Z,2.54
2023-02-28T07:49:24.110Z,2.63
2023-02-28T07:51:52.294Z,2.76
2023-02-28T07:54:20.581Z,2.91
2023-02-28T07:56:48.911Z,3.09
2023-02-28T07:59:17.356Z,3.31
2023-02-28T08:01:45.949Z,3.52
2023-02-28T08:04:14.227Z,3.68
2023-02-28T08:06:43.026Z,3.81
2023-02-28T08:09:16.370Z,3.89
2023-02-28T08:11:47.225Z,3.89
2023-02-28T08:14:15.571Z,3.80
2023-02-28T08:16:47.351Z,3.74
2023-02-28T08:19:16.030Z,3.78
2023-02-28T08:21:44.363Z,3.83
2023-02-28T08:24:12.793Z,3.94
2023-02-28T08:26:41.099Z,4.09
2023-02-28T08:29:12.654Z,4.16
2023-02-28T08:31:41.115Z,4.22
2023-02-28T08:34:10.174Z,4.27
2023-02-28T08:36:39.061Z,4.33
2023-02-28T08:39:07.811Z,4.50
2023-02-28T08:41:36.468Z,4.75
2023-02-28T08:44:04.737Z,5.04
2023-02-28T08:46:33.298Z,5.26
2023-02-28T08:49:03.043Z,5.41
2023-02-28T08:51:31.955Z,5.38
2023-02-28T08:54:01.184Z,5.23
2023-02-28T08:56:34.175Z,5.13
2023-02-28T08:59:02.453Z,5.06
2023-02-28T09:01:31.234Z,5.05
2023-02-28T09:04:00.561Z,5.08
2023-02-28T09:06:29.943Z,5.18
2023-02-28T09:09:02.666Z,5.33
2023-02-28T09:11:31.107Z,5.39
2023-02-28T09:14:07.457Z,5.30
2023-02-28T09:16:36.498Z,5.21
2023-02-28T09:19:04.876Z,5.21
2023-02-28T09:21:34.892Z,5.20
2023-02-28T09:24:03.125Z,5.20
2023-02-28T09:26:42.802Z,5.38
2023-02-28T09:29:17.914Z,5.44
2023-02-28T09:31:49.490Z,5.32
2023-02-28T09:34:18.742Z,5.08
2023-02-28T09:36:47.704Z,4.83
2023-02-28T09:39:17.657Z,4.66
2023-02-28T09:41:51.533Z,4.50
2023-02-28T09:44:26.318Z,4.42
2023-02-28T09:47:21.776Z,4.49
2023-02-28T09:49:50.040Z,4.67
2023-02-28T09:52:19.207Z,4.86
2023-02-28T09:54:48.540Z,4.99
2023-02-28T09:57:26.334Z,5.05
2023-02-28T09:59:57.596Z,5.06
2023-02-28T10:02:46.380Z,5.01
2023-02-28T10:05:28.588Z,4.87
2023-02-28T10:08:02.944Z,4.80
2023-02-28T10:10:42.073Z,4.87
2023-02-28T10:13:22.694Z,5.05
2023-02-28T10:15:52.539Z,5.18
2023-02-28T10:18:22.693Z,5.29
2023-02-28T10:20:51.028Z,5.30
2023-02-28T10:23:23.575Z,5.33
2023-02-28T10:25:55.466Z,5.35
2023-02-28T10:28:25.192Z,5.40
2023-02-28T10:30:53.960Z,5.41
2023-02-28T10:33:29.254Z,5.34
2023-02-28T10:35:59.047Z,5.20
2023-02-28T10:38:33.535Z,5.12
2023-02-28T10:41:12.166Z,5.02
2023-02-28T10:43:42.013Z,4.97
2023-02-28T10:46:15.357Z,5.03
2023-02-28T10:48:51.179Z,5.23
2023-02-28T10:51:20.111Z,5.54
2023-02-28T10:54:01.173Z,5.77
2023-02-28T10:56:31.066Z,5.92
2023-02-28T10:59:01.048Z,6.03
2023-02-28T11:01:42.345Z,6.16
2023-02-28T11:04:39.130Z,6.33
2023-02-28T11:07:15.622Z,6.39
2023-02-28T11:09:46.097Z,6.30
2023-02-28T11:12:27.347Z,6.10
2023-02-28T11:14:57.573Z,5.92
2023-02-28T11:17:27.004Z,5.83
2023-02-28T11:19:56.671Z,5.82
2023-02-28T11:22:25.953Z,5.77
2023-02-28T11:24:54.755Z,5.75
2023-02-28T11:27:34.921Z,5.64
2023-02-28T11:30:07.014Z,5.61
2023-02-28T11:32:35.815Z,5.62
2023-02-28T11:35:05.206Z,5.62
2023-02-28T11:37:34.313Z,5.51
2023-02-28T11:40:02.767Z,5.40
2023-02-28T11:42:49.970Z,5.27
2023-02-28T11:45:21.596Z,5.17
2023-02-28T11:47:53.830Z,5.18
2023-02-28T11:50:27.018Z,5.20
2023-02-28T11:53:01.542Z,5.11
2023-02-28T11:55:39.230Z,5.08
2023-02-28T11:58:34.315Z,5.01
2023-02-28T12:01:08.674Z,4.89
2023-02-28T12:03:43.956Z,4.81
2023-02-28T12:06:12.740Z,4.74
2023-02-28T12:08:46.058Z,4.68
2023-02-28T12:11:33.118Z,4.61
2023-02-28T12:14:17.096Z,4.52
2023-02-28T12:16:47.578Z,4.48
2023-02-28T12:19:35.474Z,4.48
2023-02-28T12:22:06.940Z,4.50
2023-02-28T12:24:40.453Z,4.52
2023-02-28T12:27:13.892Z,4.55
2023-02-28T12:29:53.891Z,4.64
2023-02-28T12:32:31.641Z,4.75
2023-02-28T12:35:02.765Z,4.73
2023-02-28T12:37:33.041Z,4.67
2023-02-28T12:40:03.011Z,4.54
2023-02-28T12:42:32.381Z,4.32
2023-02-28T12:45:27.757Z,4.11
2023-02-28T12:48:00.887Z,3.99
2023-02-28T12:50:32.573Z,3.91
2023-02-28T12:53:05.026Z,3.88
2023-02-28T12:55:41.661Z,3.88
2023-02-28T12:58:29.881Z,3.87
2023-02-28T13:01:06.383Z,3.76
2023-02-28T13:03:53.809Z,3.69
2023-02-28T13:06:40.993Z,3.59
2023-02-28T13:09:16.744Z,3.45
2023-02-28T13:11:48.676Z,3.36
2023-02-28T13:14:23.973Z,3.32
2023-02-28T13:16:58.756Z,3.30
2023-02-28T13:19:27.900Z,3.34
2023-02-28T13:21:56.411Z,3.35
2023-02-28T13:24:50.599Z,3.35
2023-02-28T13:27:25.694Z,3.34
2023-02-28T13:29:53.996Z,3.28
2023-02-28T13:32:35.284Z,3.27
2023-02-28T13:35:05.631Z,3.25
2023-02-28T13:37:34.706Z,3.22
2023-02-28T13:40:12.339Z,3.21
2023-02-28T13:42:40.745Z,3.20
2023-02-28T13:45:08.999Z,3.22
2023-02-28T13:47:49.744Z,3.21
2023-02-28T13:50:39.095Z,3.19
2023-02-28T13:53:16.348Z,3.15
2023-02-28T13:55:45.964Z,3.11
2023-02-28T13:58:18.243Z,3.07
2023-02-28T14:01:05.804Z,3.01
2023-02-28T14:03:50.239Z,2.95
2023-02-28T14:06:18.614Z,2.88
2023-02-28T14:09:09.274Z,2.78
2023-02-28T14:11:40.426Z,2.63
2023-02-28T14:14:09.591Z,2.55
2023-02-28T14:16:42.144Z,2.49
2023-02-28T14:19:16.988Z,2.48
2023-02-28T14:21:49.999Z,2.46
2023-02-28T14:25:00.612Z,2.45
2023-02-28T14:27:28.996Z,2.36
2023-02-28T14:30:16.190Z,2.27
2023-02-28T14:33:09.739Z,2.22
2023-02-28T14:35:41.115Z,2.21
2023-02-28T14:38:14.919Z,2.22
2023-02-28T14:40:43.179Z,2.18
2023-02-28T14:43:22.893Z,2.14
2023-02-28T14:45:51.918Z,2.08
2023-02-28T14:48:20.259Z,1.98
2023-02-28T14:50:59.182Z,1.94
2023-02-28T14:53:28.737Z,1.93
2023-02-28T14:55:57.520Z,1.92
2023-02-28T14:58:32.391Z,1.92
2023-02-28T15:01:03.122Z,1.88
2023-02-28T15:03:31.756Z,1.78
2023-02-28T15:06:01.301Z,1.72
2023-02-28T15:08:30.454Z,1.69
2023-02-28T15:10:59.771Z,1.67
2023-02-28T15:13:41.247Z,1.64
2023-02-28T15:16:33.027Z,1.62
2023-02-28T15:19:02.109Z,1.58
2023-02-28T15:21:37.914Z,1.54
2023-02-28T15:24:06.436Z,1.47
2023-02-28T15:26:35.562Z,1.42
2023-02-28T15:29:07.927Z,1.39
2023-02-28T15:31:56.147Z,1.35
2023-02-28T15:34:37.070Z,1.28
2023-02-28T15:37:28.307Z,1.20
2023-02-28T15:39:57.018Z,1.12
2023-02-28T15:42:29.151Z,1.05
2023-02-28T15:44:58.543Z,0.99
2023-02-28T15:47:30.594Z,0.95
2023-02-28T15:50:07.291Z,0.93
2023-02-28T15:52:41.987Z,0.93
2023-02-28T15:55:30.208Z,0.90
2023-02-28T15:58:01.980Z,0.88
2023-02-28T16:00:30.843Z,0.86
2023-02-28T16:03:01.245Z,0.84
2023-02-28T16:05:32.943Z,0.82
2023-02-28T16:08:02.919Z,0.78
2023-02-28T16:10:33.664Z,0.73
2023-02-28T16:13:03.237Z,0.69
2023-02-28T16:15:42.630Z,0.69
2023-02-28T16:18:12.608Z,0.69
2023-02-28T16:20:40.911Z,0.69
2023-02-28T16:23:09.387Z,0.68
2023-02-28T16:25:38.684Z,0.65
2023-02-28T16:28:14.400Z,0.64
2023-02-28T16:30:43.372Z,0.61
2023-02-28T16:33:13.929Z,0.58
2023-02-28T16:35:43.062Z,0.53
2023-02-28T16:38:11.401Z,0.45
2023-02-28T16:40:40.131Z,0.35
2023-02-28T16:43:10.351Z,0.23
2023-02-28T16:45:40.270Z,0.15
2023-02-28T16:48:09.793Z,0.07
2023-02-28T16:50:37.999Z,-0.03
2023-02-28T16:53:06.368Z,-0.12
2023-02-28T16:55:38.184Z,-0.22
2023-02-28T16:58:07.758Z,-0.28
2023-02-28T17:00:36.130Z,-0.32
2023-02-28T17:03:06.593Z,-0.32
2023-02-28T17:05:38.905Z,-0.31
2023-02-28T17:08:07.192Z,-0.30
2023-02-28T17:10:35.773Z,-0.28
2023-02-28T17:13:14.541Z,-0.28
2023-02-28T17:15:46.276Z,-0.28
2023-02-28T17:18:15.852Z,-0.31
2023-02-28T17:20:46.383Z,-0.38
2023-02-28T17:23:14.713Z,-0.47
2023-02-28T17:25:56.373Z,-0.56
2023-02-28T17:28:26.275Z,-0.66
2023-02-28T17:30:54.669Z,-0.74
2023-02-28T17:33:23.659Z,-0.83
2023-02-28T17:35:52.171Z,-0.93
2023-02-28T17:38:20.859Z,-1.02
2023-02-28T17:40:49.169Z,-1.10
2023-02-28T17:43:17.511Z,-1.18
2023-02-28T17:45:45.960Z,-1.25
2023-02-28T17:48:15.248Z,-1.31
2023-02-28T17:50:43.527Z,-1.37
2023-02-28T17:53:13.643Z,-1.43
2023-02-28T17:55:42.160Z,-1.48
2023-02-28T17:58:10.875Z,-1.53
2023-02-28T18:00:40.077Z,-1.57
2023-02-28T18:03:09.286Z,-1.61
2023-02-28T18:05:39.547Z,-1.65
2023-02-28T18:08:10.585Z,-1.67
2023-02-28T18:10:41.733Z,-1.70
2023-02-28T18:13:13.699Z,-1.73
2023-02-28T18:15:42.185Z,-1.76
2023-02-28T18:18:10.469Z,-1.77
2023-02-28T18:20:38.746Z,-1.80
2023-02-28T18:23:07.445Z,-1.82
2023-02-28T18:25:35.677Z,-1.84
2023-02-28T18:28:05.101Z,-1.86
2023-02-28T18:30:33.628Z,-1.88
2023-02-28T18:33:02.242Z,-1.89
2023-02-28T18:35:36.870Z,-1.90
2023-02-28T18:38:07.160Z,-1.88
2023-02-28T18:40:35.617Z,-1.86
2023-02-28T18:43:04.212Z,-1.82
2023-02-28T18:45:32.777Z,-1.74
2023-02-28T18:48:01.739Z,-1.63
2023-02-28T18:50:30.454Z,-1.53
2023-02-28T18:52:59.485Z,-1.44
2023-02-28T18:55:28.014Z,-1.36
2023-02-28T18:57:56.315Z,-1.27
2023-02-28T19:00:26.007Z,-1.18
2023-02-28T19:02:54.718Z,-1.08
2023-02-28T19:05:25.336Z,-0.99
2023-02-28T19:07:53.554Z,-0.94
2023-02-28T19:10:22.302Z,-0.88
2023-02-28T19:12:50.642Z,-0.84
2023-02-28T19:15:19.475Z,-0.84
2023-02-28T19:17:47.963Z,-0.87
2023-02-28T19:20:16.860Z,-0.91
2023-02-28T19:22:45.737Z,-0.94
2023-02-28T19:25:13.927Z,-0.96
2023-02-28T19:27:43.368Z,-1.00
2023-02-28T19:30:12.840Z,-1.06
2023-02-28T19:32:41.214Z,-1.20
2023-02-28T19:35:09.716Z,-1.36
2023-02-28T19:37:40.078Z,-1.52
2023-02-28T19:40:09.329Z,-1.69
2023-02-28T19:42:37.648Z,-1.84
2023-02-28T19:45:07.093Z,-1.98
2023-02-28T19:47:38.591Z,-2.10
2023-02-28T19:50:07.719Z,-2.19
2023-02-28T19:52:36.099Z,-2.28
2023-02-28T19:55:05.422Z,-2.35
2023-02-28T19:57:34.007Z,-2.41
2023-02-28T20:00:02.400Z,-2.45
2023-02-28T20:02:41.279Z,-2.49
2023-02-28T20:05:10.419Z,-2.52
2023-02-28T20:07:38.938Z,-2.54
2023-02-28T20:10:07.398Z,-2.56
2023-02-28T20:12:35.959Z,-2.58
2023-02-28T20:15:04.747Z,-2.61
2023-02-28T20:17:37.023Z,-2.63
2023-02-28T20:20:06.070Z,-2.66
2023-02-28T20:22:35.214Z,-2.67
2023-02-28T20:25:05.573Z,-2.68
2023-02-28T20:27:35.369Z,-2.69
2023-02-28T20:30:04.660Z,-2.69
2023-02-28T20:32:33.873Z,-2.70
2023-02-28T20:35:07.259Z,-2.71
2023-02-28T20:37:35.819Z,-2.71
2023-02-28T20:40:04.752Z,-2.71
2023-02-28T20:42:33.441Z,-2.71
2023-02-28T20:45:04.073Z,-2.72
2023-02-28T20:47:32.660Z,-2.73
2023-02-28T20:50:01.109Z,-2.74
2023-02-28T20:52:29.765Z,-2.75
2023-02-28T20:54:59.036Z,-2.76
2023-02-28T20:57:31.295Z,-2.76
2023-02-28T20:59:59.580Z,-2.75
2023-02-28T21:02:28.509Z,-2.76
2023-02-28T21:04:56.996Z,-2.76
2023-02-28T21:07:26.411Z,-2.74
2023-02-28T21:09:55.047Z,-2.75
2023-02-28T21:12:23.476Z,-2.73
2023-02-28T21:14:52.054Z,-2.73
2023-02-28T21:17:21.857Z,-2.74
2023-02-28T21:19:50.397Z,-2.74
2023-02-28T21:22:20.036Z,-2.74
2023-02-28T21:24:48.303Z,-2.74
2023-02-28T21:27:16.591Z,-2.75
2023-02-28T21:29:45.394Z,-2.74
2023-02-28T21:32:14.834Z,-2.74
2023-02-28T21:34:43.483Z,-2.74
2023-02-28T21:37:11.748Z,-2.73
2023-02-28T21:39:40.076Z,-2.72
2023-02-28T21:42:08.602Z,-2.70
2023-02-28T21:44:36.952Z,-2.71
2023-02-28T21:47:05.674Z,-2.74
2023-02-28T21:49:35.249Z,-2.78
2023-02-28T21:52:03.379Z,-2.82
2023-02-28T21:54:31.775Z,-2.85
2023-02-28T21:57:02.114Z,-2.88
2023-02-28T21:59:30.594Z,-2.90
2023-02-28T22:01:58.897Z,-2.91
2023-02-28T22:04:27.413Z,-2.92
2023-02-28T22:06:57.490Z,-2.94
2023-02-28T22:09:26.299Z,-2.93
2023-02-28T22:11:55.544Z,-2.94
2023-02-28T22:14:24.757Z,-2.95
2023-02-28T22:16:55.025Z,-2.96
2023-02-28T22:19:23.949Z,-2.94
2023-02-28T22:21:53.998Z,-2.93
2023-02-28T22:24:24.827Z,-2.93
2023-02-28T22:26:53.347Z,-2.95
2023-02-28T22:29:21.744Z,-2.98
2023-02-28T22:31:50.270Z,-3.01
2023-02-28T22:34:20.188Z,-3.04
2023-02-28T22:36:48.708Z,-3.06
2023-02-28T22:39:16.971Z,-3.06
2023-02-28T22:41:45.184Z,-3.05
2023-02-28T22:44:18.613Z,-3.03
2023-02-28T22:46:47.222Z,-3.01
2023-02-28T22:49:15.851Z,-3.00
2023-02-28T22:51:44.281Z,-2.99
2023-02-28T22:54:12.545Z,-2.99
2023-02-28T22:56:40.873Z,-2.99
2023-02-28T22:59:10.551Z,-3.01
2023-02-28T23:01:39.106Z,-3.00
2023-02-28T23:04:07.412Z,-3.01
2023-02-28T23:06:38.285Z,-3.01
2023-02-28T23:09:06.921Z,-3.02
2023-02-28T23:11:37.225Z,-3.00
2023-02-28T23:14:06.117Z,-2.99
2023-02-28T23:16:40.454Z,-3.01
2023-02-28T23:19:12.549Z,-3.01
2023-02-28T23:21:41.744Z,-3.03
2023-02-28T23:24:12.960Z,-3.04
2023-02-28T23:26:43.966Z,-3.06
2023-02-28T23:29:13.092Z,-3.07
2023-02-28T23:31:41.416Z,-3.08
2023-02-28T23:34:09.940Z,-3.08
2023-02-28T23:36:39.189Z,-3.10
2023-02-28T23:39:07.582Z,-3.10
2023-02-28T23:41:35.843Z,-3.10
2023-02-28T23:44:04.328Z,-3.10
2023-02-28T23:46:33.002Z,-3.10
2023-02-28T23:49:01.532Z,-3.13
2023-02-28T23:51:29.961Z,-3.16
2023-02-28T23:53:58.235Z,-3.16
2023-02-28T23:56:26.513Z,-3.16
2023-02-28T23:58:55.601Z,-3.17
